createdAt,value
2023-03-25T00:00:31.538Z,10.04
2023-03-25T00:01:31.619Z,10.02
2023-03-25T00:02:31.699Z,10.01
2023-03-25T00:03:31.541Z,9.94
2023-03-25T00:04:31.535Z,9.91
2023-03-25T00:05:31.501Z,9.87
2023-03-25T00:06:31.511Z,9.84
2023-03-25T00:07:31.530Z,9.84
2023-03-25T00:08:31.443Z,9.79
2023-03-25T00:09:31.427Z,9.81
2023-03-25T00:10:31.442Z,9.81
2023-03-25T00:11:31.386Z,9.84
2023-03-25T00:12:31.599Z,9.87
2023-03-25T00:13:31.392Z,9.84
2023-03-25T00:14:31.418Z,9.89
2023-03-25T00:15:31.359Z,9.91
2023-03-25T00:16:31.395Z,9.94
2023-03-25T00:17:31.362Z,9.91
2023-03-25T00:18:31.330Z,9.94
2023-03-25T00:19:31.301Z,9.94
2023-03-25T00:20:31.282Z,9.91
2023-03-25T00:21:31.270Z,9.97
2023-03-25T00:22:31.241Z,9.93
2023-03-25T00:23:31.256Z,9.97
2023-03-25T00:24:31.280Z,9.97
2023-03-25T00:25:31.229Z,9.93
2023-03-25T00:26:31.277Z,9.96
2023-03-25T00:27:31.232Z,9.97
2023-03-25T00:28:31.236Z,9.96
2023-03-25T00:29:31.187Z,9.96
2023-03-25T00:30:31.184Z,9.97
2023-03-25T00:31:31.147Z,9.99
2023-03-25T00:32:31.171Z,9.97
2023-03-25T00:33:31.103Z,9.99
2023-03-25T00:34:31.139Z,10.04
2023-03-25T00:35:31.069Z,10.02
2023-03-25T00:36:31.082Z,10.05
2023-03-25T00:37:31.054Z,10.01
2023-03-25T00:38:31.082Z,10.02
2023-03-25T00:39:31.061Z,10.01
2023-03-25T00:40:31.053Z,10.02
2023-03-25T00:41:31.002Z,9.99
2023-03-25T00:42:30.996Z,9.97
2023-03-25T00:43:30.962Z,9.99
2023-03-25T00:44:30.937Z,10.02
2023-03-25T00:45:30.967Z,9.99
2023-03-25T00:46:30.960Z,9.97
2023-03-25T00:47:30.992Z,10.01
2023-03-25T00:48:30.906Z,10.04
2023-03-25T00:49:30.879Z,10.04
2023-03-25T00:50:30.956Z,10.01
2023-03-25T00:51:30.878Z,10.01
2023-03-25T00:52:30.831Z,10.04
2023-03-25T00:53:30.873Z,9.97
2023-03-25T00:54:30.849Z,9.97
2023-03-25T00:55:30.817Z,9.99
2023-03-25T00:56:30.811Z,9.97
2023-03-25T00:57:30.809Z,9.97
2023-03-25T00:58:30.747Z,9.97
2023-03-25T00:59:30.736Z,10.04
2023-03-25T01:00:30.744Z,10.04
2023-03-25T01:01:30.827Z,9.99
2023-03-25T01:02:30.791Z,9.99
2023-03-25T01:03:30.836Z,10.01
2023-03-25T01:04:30.680Z,10.01
2023-03-25T01:05:30.652Z,10.01
2023-03-25T01:06:30.655Z,9.99
2023-03-25T01:07:30.651Z,9.99
2023-03-25T01:08:30.657Z,9.99
2023-03-25T01:09:30.594Z,9.97
2023-03-25T01:10:30.691Z,9.99
2023-03-25T01:11:30.596Z,10.02
2023-03-25T01:12:30.556Z,10.05
2023-03-25T01:13:30.595Z,10.05
2023-03-25T01:14:30.528Z,10.07
2023-03-25T01:15:30.590Z,10.02
2023-03-25T01:16:30.528Z,10.01
2023-03-25T01:17:30.505Z,10.04
2023-03-25T01:18:30.479Z,10.01
2023-03-25T01:19:30.482Z,10.02
2023-03-25T01:20:30.495Z,9.96
2023-03-25T01:21:30.472Z,9.97
2023-03-25T01:22:30.438Z,9.96
2023-03-25T01:23:30.405Z,9.93
2023-03-25T01:24:30.409Z,9.94
2023-03-25T01:25:30.371Z,9.93
2023-03-25T01:26:30.396Z,9.94
2023-03-25T01:27:30.353Z,9.96
2023-03-25T01:28:30.346Z,9.91
2023-03-25T01:29:30.312Z,9.93
2023-03-25T01:30:30.291Z,9.97
2023-03-25T01:31:30.619Z,9.93
2023-03-25T01:32:30.325Z,9.90
2023-03-25T01:33:30.265Z,9.94
2023-03-25T01:34:30.276Z,9.94
2023-03-25T01:35:30.273Z,9.91
2023-03-25T01:36:30.270Z,9.93
2023-03-25T01:37:30.283Z,9.93
2023-03-25T01:38:30.249Z,9.96
2023-03-25T01:39:30.193Z,9.93
2023-03-25T01:40:30.165Z,9.94
2023-03-25T01:41:42.237Z,9.96
2023-03-25T01:42:31.157Z,9.94
2023-03-25T01:43:30.138Z,9.94
2023-03-25T01:44:30.167Z,9.90
2023-03-25T01:45:30.130Z,9.90
2023-03-25T01:46:30.136Z,9.93
2023-03-25T01:47:30.134Z,9.94
2023-03-25T01:48:30.076Z,9.93
2023-03-25T01:49:30.387Z,9.93
2023-03-25T01:50:30.045Z,9.91
2023-03-25T01:51:30.030Z,9.94
2023-03-25T01:52:30.042Z,9.94
2023-03-25T01:53:30.056Z,9.96
2023-03-25T01:54:29.982Z,9.97
2023-03-25T01:55:30.005Z,9.96
2023-03-25T01:56:30.085Z,9.96
2023-03-25T01:57:29.955Z,10.01
2023-03-25T01:58:29.958Z,10.01
2023-03-25T01:59:29.994Z,9.99
2023-03-25T02:00:29.978Z,10.01
2023-03-25T02:01:29.924Z,10.01
2023-03-25T02:02:29.925Z,10.02
2023-03-25T02:03:29.939Z,9.99
2023-03-25T02:04:29.878Z,10.02
2023-03-25T02:05:29.831Z,10.04
2023-03-25T02:06:29.850Z,10.04
2023-03-25T02:07:29.808Z,10.05
2023-03-25T02:08:29.819Z,10.08
2023-03-25T02:09:29.769Z,10.08
2023-03-25T02:10:29.794Z,10.07
2023-03-25T02:11:29.911Z,10.07
2023-03-25T02:12:29.810Z,10.05
2023-03-25T02:13:29.728Z,10.08
2023-03-25T02:14:29.736Z,10.09
2023-03-25T02:15:29.690Z,10.07
2023-03-25T02:16:29.744Z,10.07
2023-03-25T02:17:29.736Z,10.07
2023-03-25T02:18:29.671Z,10.04
2023-03-25T02:19:29.751Z,10.05
2023-03-25T02:20:29.665Z,10.04
2023-03-25T02:21:29.637Z,10.01
2023-03-25T02:22:29.622Z,10.01
2023-03-25T02:23:29.624Z,9.97
2023-03-25T02:24:29.563Z,9.96
2023-03-25T02:25:29.620Z,9.97
2023-03-25T02:26:29.553Z,9.97
2023-03-25T02:27:29.535Z,9.96
2023-03-25T02:28:29.525Z,9.97
2023-03-25T02:29:29.567Z,10.01
2023-03-25T02:30:29.507Z,9.99
2023-03-25T02:31:29.542Z,10.01
2023-03-25T02:32:29.490Z,10.02
2023-03-25T02:33:29.434Z,9.99
2023-03-25T02:34:29.457Z,9.99
2023-03-25T02:35:29.419Z,9.97
2023-03-25T02:36:29.413Z,10.05
2023-03-25T02:37:29.399Z,10.01
2023-03-25T02:38:29.498Z,10.02
2023-03-25T02:39:29.361Z,10.02
2023-03-25T02:40:29.356Z,10.02
2023-03-25T02:41:29.400Z,10.01
2023-03-25T02:42:29.358Z,9.99
2023-03-25T02:43:29.360Z,9.96
2023-03-25T02:44:29.291Z,9.96
2023-03-25T02:45:29.313Z,9.94
2023-03-25T02:46:29.376Z,9.96
2023-03-25T02:47:29.282Z,9.91
2023-03-25T02:48:29.256Z,9.94
2023-03-25T02:49:29.310Z,9.97
2023-03-25T02:50:29.267Z,9.96
2023-03-25T02:51:29.200Z,9.94
2023-03-25T02:52:29.289Z,9.91
2023-03-25T02:53:29.203Z,9.91
2023-03-25T02:54:29.166Z,9.93
2023-03-25T02:55:29.218Z,9.91
2023-03-25T02:56:29.175Z,9.93
2023-03-25T02:57:29.118Z,9.90
2023-03-25T02:58:29.183Z,9.90
2023-03-25T02:59:29.139Z,9.90
2023-03-25T03:00:29.104Z,9.89
2023-03-25T03:01:29.122Z,9.90
2023-03-25T03:02:29.111Z,9.90
2023-03-25T03:03:29.095Z,9.87
2023-03-25T03:04:29.017Z,9.89
2023-03-25T03:05:29.085Z,9.91
2023-03-25T03:06:29.006Z,9.91
2023-03-25T03:07:28.965Z,9.91
2023-03-25T03:08:29.008Z,9.94
2023-03-25T03:09:29.068Z,9.93
2023-03-25T03:10:29.028Z,9.94
2023-03-25T03:11:28.974Z,9.91
2023-03-25T03:12:28.912Z,9.91
2023-03-25T03:13:28.945Z,9.90
2023-03-25T03:14:28.916Z,9.87
2023-03-25T03:15:28.868Z,9.89
2023-03-25T03:16:28.926Z,9.90
2023-03-25T03:17:28.916Z,9.90
2023-03-25T03:18:28.931Z,9.91
2023-03-25T03:19:28.868Z,9.87
2023-03-25T03:20:28.901Z,9.89
2023-03-25T03:21:28.834Z,9.86
2023-03-25T03:22:28.805Z,9.84
2023-03-25T03:23:28.778Z,9.86
2023-03-25T03:24:28.753Z,9.87
2023-03-25T03:25:28.756Z,9.89
2023-03-25T03:26:28.729Z,9.87
2023-03-25T03:27:28.771Z,9.86
2023-03-25T03:28:28.753Z,9.84
2023-03-25T03:29:28.804Z,9.87
2023-03-25T03:30:28.694Z,9.79
2023-03-25T03:31:50.824Z,9.79
2023-03-25T03:32:29.834Z,9.75
2023-03-25T03:33:28.632Z,9.71
2023-03-25T03:34:28.634Z,9.68
2023-03-25T03:35:28.662Z,9.66
2023-03-25T03:36:28.619Z,9.64
2023-03-25T03:37:28.584Z,9.65
2023-03-25T03:38:28.587Z,9.61
2023-03-25T03:39:28.667Z,9.60
2023-03-25T03:40:28.523Z,9.57
2023-03-25T03:41:28.604Z,9.57
2023-03-25T03:42:28.555Z,9.56
2023-03-25T03:43:28.512Z,9.57
2023-03-25T03:44:28.473Z,9.57
2023-03-25T03:45:28.504Z,9.58
2023-03-25T03:46:28.523Z,9.57
2023-03-25T03:47:28.537Z,9.60
2023-03-25T03:48:28.480Z,9.66
2023-03-25T03:49:28.394Z,9.66
2023-03-25T03:50:28.402Z,9.65
2023-03-25T03:51:28.375Z,9.65
2023-03-25T03:52:28.353Z,9.66
2023-03-25T03:53:28.358Z,9.68
2023-03-25T03:54:28.374Z,9.68
2023-03-25T03:55:28.311Z,9.69
2023-03-25T03:56:28.373Z,9.68
2023-03-25T03:57:28.308Z,9.69
2023-03-25T03:58:28.304Z,9.68
2023-03-25T03:59:28.368Z,9.68
2023-03-25T04:00:28.300Z,9.66
2023-03-25T04:01:28.238Z,9.65
2023-03-25T04:02:28.359Z,9.58
2023-03-25T04:03:28.489Z,9.53
2023-03-25T04:04:28.222Z,9.46
2023-03-25T04:05:28.263Z,9.39
2023-03-25T04:06:28.185Z,9.36
2023-03-25T04:07:28.163Z,9.33
2023-03-25T04:08:28.160Z,9.32
2023-03-25T04:09:28.162Z,9.24
2023-03-25T04:10:28.148Z,9.26
2023-03-25T04:11:28.114Z,9.29
2023-03-25T04:12:28.123Z,9.28
2023-03-25T04:13:28.095Z,9.26
2023-03-25T04:14:28.049Z,9.23
2023-03-25T04:15:36.744Z,9.28
2023-03-25T04:16:28.068Z,9.33
2023-03-25T04:17:28.115Z,9.29
2023-03-25T04:18:28.007Z,9.32
2023-03-25T04:19:28.003Z,9.36
2023-03-25T04:20:28.022Z,9.39
2023-03-25T04:21:28.005Z,9.39
2023-03-25T04:22:28.003Z,9.38
2023-03-25T04:23:27.954Z,9.32
2023-03-25T04:24:27.958Z,9.33
2023-03-25T04:25:27.932Z,9.32
2023-03-25T04:26:27.924Z,9.28
2023-03-25T04:27:27.928Z,9.23
2023-03-25T04:28:27.885Z,9.20
2023-03-25T04:29:27.867Z,9.13
2023-03-25T04:30:27.851Z,9.10
2023-03-25T04:31:27.925Z,9.02
2023-03-25T04:32:28.052Z,9.01
2023-03-25T04:33:27.851Z,9.04
2023-03-25T04:34:27.801Z,9.08
2023-03-25T04:35:27.799Z,9.05
2023-03-25T04:36:27.791Z,9.08
2023-03-25T04:37:27.756Z,9.11
2023-03-25T04:38:27.753Z,9.13
2023-03-25T04:39:27.728Z,9.17
2023-03-25T04:40:27.756Z,9.15
2023-03-25T04:41:27.710Z,9.21
2023-03-25T04:42:27.686Z,9.23
2023-03-25T04:43:27.680Z,9.28
2023-03-25T04:44:27.671Z,9.28
2023-03-25T04:45:27.718Z,9.29
2023-03-25T04:46:27.625Z,9.28
2023-03-25T04:47:27.743Z,9.28
2023-03-25T04:48:27.598Z,9.26
2023-03-25T04:49:27.592Z,9.31
2023-03-25T04:50:27.593Z,9.31
2023-03-25T04:51:27.593Z,9.31
2023-03-25T04:52:27.614Z,9.31
2023-03-25T04:53:27.566Z,9.32
2023-03-25T04:54:27.570Z,9.29
2023-03-25T04:55:27.497Z,9.36
2023-03-25T04:56:27.592Z,9.38
2023-03-25T04:57:27.485Z,9.42
2023-03-25T04:58:27.468Z,9.40
2023-03-25T04:59:27.465Z,9.43
2023-03-25T05:00:27.425Z,9.38
2023-03-25T05:01:27.535Z,9.36
2023-03-25T05:02:27.435Z,9.35
2023-03-25T05:03:27.383Z,9.29
2023-03-25T05:04:27.414Z,9.28
2023-03-25T05:05:27.425Z,9.29
2023-03-25T05:06:27.358Z,9.28
2023-03-25T05:07:27.352Z,9.29
2023-03-25T05:08:27.356Z,9.28
2023-03-25T05:09:27.306Z,9.29
2023-03-25T05:10:27.305Z,9.23
2023-03-25T05:11:27.285Z,9.23
2023-03-25T05:12:27.295Z,9.18
2023-03-25T05:13:27.954Z,9.17
2023-03-25T05:14:27.235Z,9.18
2023-03-25T05:15:27.234Z,9.18
2023-03-25T05:16:27.332Z,9.26
2023-03-25T05:17:27.202Z,9.28
2023-03-25T05:18:27.463Z,9.33
2023-03-25T05:19:27.182Z,9.40
2023-03-25T05:20:27.205Z,9.38
2023-03-25T05:21:27.159Z,9.46
2023-03-25T05:22:27.131Z,9.47
2023-03-25T05:23:27.159Z,9.48
2023-03-25T05:24:27.111Z,9.53
2023-03-25T05:25:27.134Z,9.53
2023-03-25T05:26:27.080Z,9.51
2023-03-25T05:27:27.055Z,9.51
2023-03-25T05:28:27.048Z,9.53
2023-03-25T05:29:27.023Z,9.50
2023-03-25T05:30:27.043Z,9.50
2023-03-25T05:31:27.034Z,9.50
2023-03-25T05:32:27.147Z,9.48
2023-03-25T05:33:26.982Z,9.51
2023-03-25T05:34:26.969Z,9.51
2023-03-25T05:35:27.060Z,9.50
2023-03-25T05:36:26.954Z,9.50
2023-03-25T05:37:26.925Z,9.56
2023-03-25T05:38:26.896Z,9.56
2023-03-25T05:39:26.907Z,9.61
2023-03-25T05:40:26.885Z,9.61
2023-03-25T05:41:26.878Z,9.58
2023-03-25T05:42:26.867Z,9.61
2023-03-25T05:43:26.883Z,9.60
2023-03-25T05:44:26.829Z,9.61
2023-03-25T05:45:26.878Z,9.61
2023-03-25T05:46:26.904Z,9.65
2023-03-25T05:47:26.814Z,9.65
2023-03-25T05:48:26.804Z,9.65
2023-03-25T05:49:26.751Z,9.65
2023-03-25T05:50:26.776Z,9.65
2023-03-25T05:51:26.717Z,9.64
2023-03-25T05:52:26.732Z,9.65
2023-03-25T05:53:26.726Z,9.65
2023-03-25T05:54:26.722Z,9.65
2023-03-25T05:55:26.664Z,9.69
2023-03-25T05:56:26.667Z,9.68
2023-03-25T05:57:26.788Z,9.74
2023-03-25T05:58:26.690Z,9.71
2023-03-25T05:59:26.659Z,9.75
2023-03-25T06:00:26.643Z,9.74
2023-03-25T06:01:33.403Z,9.78
2023-03-25T06:02:27.602Z,9.76
2023-03-25T06:03:26.739Z,9.75
2023-03-25T06:04:26.676Z,9.74
2023-03-25T06:05:26.586Z,9.75
2023-03-25T06:06:26.546Z,9.72
2023-03-25T06:07:26.524Z,9.76
2023-03-25T06:08:26.596Z,9.76
2023-03-25T06:09:26.490Z,9.76
2023-03-25T06:10:26.506Z,9.78
2023-03-25T06:11:26.503Z,9.78
2023-03-25T06:12:26.928Z,9.75
2023-03-25T06:13:26.496Z,9.76
2023-03-25T06:14:26.579Z,9.74
2023-03-25T06:15:26.455Z,9.72
2023-03-25T06:16:26.562Z,9.74
2023-03-25T06:17:26.553Z,9.79
2023-03-25T06:18:26.425Z,9.79
2023-03-25T06:19:26.492Z,9.83
2023-03-25T06:20:26.369Z,9.84
2023-03-25T06:21:26.382Z,9.86
2023-03-25T06:22:26.382Z,9.86
2023-03-25T06:23:26.447Z,9.87
2023-03-25T06:24:26.320Z,9.91
2023-03-25T06:25:26.331Z,9.90
2023-03-25T06:26:26.393Z,9.91
2023-03-25T06:27:26.310Z,9.93
2023-03-25T06:28:26.274Z,9.96
2023-03-25T06:29:26.243Z,9.94
2023-03-25T06:30:26.466Z,9.93
2023-03-25T06:31:26.265Z,9.93
2023-03-25T06:32:26.283Z,9.87
2023-03-25T06:33:42.619Z,9.87
2023-03-25T06:34:27.163Z,9.89
2023-03-25T06:35:26.188Z,9.89
2023-03-25T06:36:26.198Z,9.87
2023-03-25T06:37:26.142Z,9.90
2023-03-25T06:38:26.102Z,9.87
2023-03-25T06:39:26.118Z,9.89
2023-03-25T06:40:26.082Z,9.91
2023-03-25T06:41:26.125Z,9.90
2023-03-25T06:42:26.062Z,9.90
2023-03-25T06:43:26.123Z,9.96
2023-03-25T06:44:26.061Z,9.97
2023-03-25T06:45:26.042Z,9.93
2023-03-25T06:46:26.067Z,9.97
2023-03-25T06:47:26.136Z,9.97
2023-03-25T06:48:26.010Z,9.97
2023-03-25T06:49:26.023Z,10.02
2023-03-25T06:50:25.965Z,10.08
2023-03-25T06:51:25.972Z,10.11
2023-03-25T06:52:26.089Z,10.23
2023-03-25T06:53:25.913Z,10.26
2023-03-25T06:54:25.922Z,10.32
2023-03-25T06:55:25.892Z,10.23
2023-03-25T06:56:25.862Z,10.22
2023-03-25T06:57:25.965Z,10.18
2023-03-25T06:58:25.815Z,10.12
2023-03-25T06:59:25.827Z,10.14
2023-03-25T07:00:25.826Z,10.07
2023-03-25T07:01:25.814Z,10.01
2023-03-25T07:02:25.913Z,10.01
2023-03-25T07:03:25.847Z,9.97
2023-03-25T07:04:25.806Z,9.93
2023-03-25T07:05:25.811Z,9.93
2023-03-25T07:06:25.729Z,9.91
2023-03-25T07:07:25.693Z,9.91
2023-03-25T07:08:25.744Z,9.93
2023-03-25T07:09:25.706Z,9.93
2023-03-25T07:10:25.656Z,9.94
2023-03-25T07:11:25.743Z,9.97
2023-03-25T07:12:25.664Z,9.96
2023-03-25T07:13:25.668Z,9.99
2023-03-25T07:14:25.674Z,10.02
2023-03-25T07:15:25.699Z,10.04
2023-03-25T07:16:25.745Z,10.08
2023-03-25T07:17:25.606Z,10.08
2023-03-25T07:18:25.587Z,10.08
2023-03-25T07:19:25.668Z,10.09
2023-03-25T07:20:25.608Z,10.08
2023-03-25T07:21:25.971Z,10.09
2023-03-25T07:22:25.696Z,10.09
2023-03-25T07:23:25.496Z,10.07
2023-03-25T07:24:25.508Z,10.08
2023-03-25T07:25:25.480Z,10.08
2023-03-25T07:26:25.471Z,10.09
2023-03-25T07:27:25.517Z,10.12
2023-03-25T07:28:25.452Z,10.09
2023-03-25T07:29:25.396Z,10.08
2023-03-25T07:30:25.451Z,10.09
2023-03-25T07:31:25.418Z,10.07
2023-03-25T07:32:25.463Z,9.97
2023-03-25T07:33:25.393Z,9.94
2023-03-25T07:34:25.412Z,9.94
2023-03-25T07:35:25.373Z,9.93
2023-03-25T07:36:25.318Z,9.91
2023-03-25T07:37:25.285Z,9.90
2023-03-25T07:38:25.283Z,9.90
2023-03-25T07:39:25.307Z,9.84
2023-03-25T07:40:25.393Z,9.86
2023-03-25T07:41:25.277Z,9.81
2023-03-25T07:42:25.214Z,9.76
2023-03-25T07:43:25.240Z,9.81
2023-03-25T07:44:25.408Z,9.79
2023-03-25T07:45:25.362Z,9.81
2023-03-25T07:46:25.365Z,9.81
2023-03-25T07:47:25.202Z,9.79
2023-03-25T07:48:25.131Z,9.76
2023-03-25T07:49:25.126Z,9.83
2023-03-25T07:50:25.687Z,9.81
2023-03-25T07:51:25.156Z,9.84
2023-03-25T07:52:25.115Z,9.84
2023-03-25T07:53:25.061Z,9.89
2023-03-25T07:54:25.156Z,9.90
2023-03-25T07:55:25.061Z,9.90
2023-03-25T07:56:25.142Z,9.94
2023-03-25T07:57:25.011Z,9.96
2023-03-25T07:58:24.992Z,10.02
2023-03-25T07:59:25.424Z,10.07
2023-03-25T08:00:25.043Z,10.09
2023-03-25T08:01:25.117Z,10.12
2023-03-25T08:02:25.145Z,10.15
2023-03-25T08:03:25.002Z,10.18
2023-03-25T08:04:25.010Z,10.22
2023-03-25T08:05:25.005Z,10.30
2023-03-25T08:06:24.992Z,10.40
2023-03-25T08:07:25.393Z,10.48
2023-03-25T08:08:24.911Z,10.53
2023-03-25T08:09:24.882Z,10.52
2023-03-25T08:10:24.903Z,10.61
2023-03-25T08:11:24.911Z,10.64
2023-03-25T08:12:24.815Z,10.64
2023-03-25T08:13:24.976Z,10.68
2023-03-25T08:14:24.765Z,10.70
2023-03-25T08:15:24.992Z,10.78
2023-03-25T08:16:24.758Z,10.86
2023-03-25T08:17:26.247Z,10.89
2023-03-25T08:18:24.738Z,10.91
2023-03-25T08:19:24.716Z,10.89
2023-03-25T08:20:25.591Z,10.85
2023-03-25T08:21:24.685Z,10.89
2023-03-25T08:22:24.762Z,10.91
2023-03-25T08:23:24.678Z,10.89
2023-03-25T08:24:24.676Z,10.97
2023-03-25T08:25:24.605Z,11.04
2023-03-25T08:26:24.668Z,11.15
2023-03-25T08:27:24.728Z,11.15
2023-03-25T08:28:24.737Z,11.21
2023-03-25T08:29:24.695Z,11.15
2023-03-25T08:30:24.599Z,11.03
2023-03-25T08:31:24.628Z,11.03
2023-03-25T08:32:24.585Z,10.97
2023-03-25T08:33:24.718Z,10.94
2023-03-25T08:34:28.533Z,10.89
2023-03-25T08:35:24.562Z,10.92
2023-03-25T08:36:24.579Z,10.99
2023-03-25T08:37:24.716Z,10.91
2023-03-25T08:38:24.477Z,10.94
2023-03-25T08:39:24.494Z,10.96
2023-03-25T08:40:24.568Z,11.06
2023-03-25T08:41:24.376Z,11.10
2023-03-25T08:42:24.440Z,11.24
2023-03-25T08:43:24.404Z,11.35
2023-03-25T08:44:24.350Z,11.32
2023-03-25T08:45:24.372Z,11.33
2023-03-25T08:46:24.477Z,11.28
2023-03-25T08:47:24.356Z,11.17
2023-03-25T08:48:24.240Z,10.92
2023-03-25T08:49:24.412Z,10.79
2023-03-25T08:50:24.420Z,10.73
2023-03-25T08:51:24.438Z,10.63
2023-03-25T08:52:24.198Z,10.55
2023-03-25T08:53:24.295Z,10.52
2023-03-25T08:54:24.204Z,10.42
2023-03-25T08:55:24.256Z,10.44
2023-03-25T08:56:24.167Z,10.38
2023-03-25T08:57:24.156Z,10.36
2023-03-25T08:58:24.155Z,10.34
2023-03-25T08:59:24.113Z,10.33
2023-03-25T09:00:24.371Z,10.33
2023-03-25T09:01:24.223Z,10.36
2023-03-25T09:02:24.124Z,10.41
2023-03-25T09:03:24.130Z,10.48
2023-03-25T09:04:24.030Z,10.56
2023-03-25T09:05:24.201Z,10.56
2023-03-25T09:06:24.086Z,10.64
2023-03-25T09:07:24.031Z,10.64
2023-03-25T09:08:24.061Z,10.68
2023-03-25T09:09:23.987Z,10.68
2023-03-25T09:10:23.971Z,10.76
2023-03-25T09:11:34.112Z,10.79
2023-03-25T09:12:24.975Z,10.76
2023-03-25T09:13:24.036Z,10.76
2023-03-25T09:14:23.893Z,10.79
2023-03-25T09:15:23.899Z,10.82
2023-03-25T09:16:23.902Z,10.82
2023-03-25T09:17:23.882Z,10.79
2023-03-25T09:18:23.851Z,10.76
2023-03-25T09:19:23.880Z,10.73
2023-03-25T09:20:23.927Z,10.70
2023-03-25T09:21:23.824Z,10.53
2023-03-25T09:22:23.813Z,10.33
2023-03-25T09:23:23.763Z,10.22
2023-03-25T09:24:23.865Z,10.14
2023-03-25T09:25:23.769Z,10.08
2023-03-25T09:26:23.838Z,10.04
2023-03-25T09:27:23.917Z,9.96
2023-03-25T09:28:23.704Z,9.87
2023-03-25T09:29:23.774Z,9.84
2023-03-25T09:30:23.733Z,9.81
2023-03-25T09:31:23.932Z,9.71
2023-03-25T09:32:23.772Z,9.71
2023-03-25T09:33:23.685Z,9.72
2023-03-25T09:34:23.770Z,9.78
2023-03-25T09:35:23.629Z,9.86
2023-03-25T09:36:23.574Z,9.90
2023-03-25T09:37:23.600Z,9.93
2023-03-25T09:38:23.685Z,9.96
2023-03-25T09:39:23.554Z,9.99
2023-03-25T09:40:23.708Z,10.02
2023-03-25T09:41:23.546Z,9.99
2023-03-25T09:42:23.557Z,10.08
2023-03-25T09:43:23.618Z,10.09
2023-03-25T09:44:23.799Z,10.25
2023-03-25T09:45:23.847Z,10.26
2023-03-25T09:46:23.522Z,10.27
2023-03-25T09:47:23.547Z,10.17
2023-03-25T09:48:23.432Z,10.15
2023-03-25T09:49:23.497Z,10.22
2023-03-25T09:50:23.589Z,10.34
2023-03-25T09:51:23.483Z,10.51
2023-03-25T09:52:23.385Z,10.68
2023-03-25T09:53:23.337Z,10.85
2023-03-25T09:54:23.392Z,10.96
2023-03-25T09:55:23.409Z,11.02
2023-03-25T09:56:23.442Z,10.97
2023-03-25T09:57:23.323Z,10.92
2023-03-25T09:58:23.494Z,10.88
2023-03-25T09:59:23.290Z,10.84
2023-03-25T10:00:23.322Z,10.76
2023-03-25T10:01:28.298Z,10.71
2023-03-25T10:02:24.426Z,10.68
2023-03-25T10:03:23.453Z,10.66
2023-03-25T10:04:23.190Z,10.60
2023-03-25T10:05:23.263Z,10.47
2023-03-25T10:06:23.174Z,10.40
2023-03-25T10:07:23.183Z,10.36
2023-03-25T10:08:23.132Z,10.27
2023-03-25T10:09:23.200Z,10.20
2023-03-25T10:10:23.258Z,10.12
2023-03-25T10:11:23.301Z,10.01
2023-03-25T10:12:23.154Z,10.08
2023-03-25T10:13:23.195Z,10.15
2023-03-25T10:14:23.083Z,10.14
2023-03-25T10:15:23.035Z,10.12
2023-03-25T10:16:23.091Z,10.14
2023-03-25T10:17:22.981Z,10.09
2023-03-25T10:18:23.019Z,10.04
2023-03-25T10:19:23.110Z,10.04
2023-03-25T10:20:23.054Z,9.99
2023-03-25T10:21:22.971Z,9.93
2023-03-25T10:22:22.955Z,9.94
2023-03-25T10:23:22.946Z,9.91
2023-03-25T10:24:22.915Z,9.96
2023-03-25T10:25:22.887Z,9.96
2023-03-25T10:26:22.878Z,9.99
2023-03-25T10:27:22.859Z,10.01
2023-03-25T10:28:22.957Z,9.93
2023-03-25T10:29:22.855Z,9.91
2023-03-25T10:30:22.899Z,9.90
2023-03-25T10:31:22.864Z,9.91
2023-03-25T10:32:22.784Z,9.84
2023-03-25T10:33:22.793Z,9.87
2023-03-25T10:34:22.740Z,9.86
2023-03-25T10:35:22.792Z,9.86
2023-03-25T10:36:22.768Z,9.87
2023-03-25T10:37:22.700Z,9.81
2023-03-25T10:38:22.709Z,9.83
2023-03-25T10:39:22.681Z,9.74
2023-03-25T10:40:22.675Z,9.71
2023-03-25T10:41:22.678Z,9.71
2023-03-25T10:42:22.734Z,9.69
2023-03-25T10:43:22.632Z,9.66
2023-03-25T10:44:22.685Z,9.68
2023-03-25T10:45:22.678Z,9.66
2023-03-25T10:46:22.656Z,9.72
2023-03-25T10:47:22.624Z,9.75
2023-03-25T10:48:22.558Z,9.87
2023-03-25T10:49:22.776Z,9.87
2023-03-25T10:50:22.515Z,9.94
2023-03-25T10:51:22.540Z,10.01
2023-03-25T10:52:22.529Z,10.05
2023-03-25T10:53:22.491Z,10.11
2023-03-25T10:54:22.555Z,10.20
2023-03-25T10:55:22.494Z,10.29
2023-03-25T10:56:22.470Z,10.30
2023-03-25T10:57:22.575Z,10.30
2023-03-25T10:58:22.434Z,10.29
2023-03-25T10:59:22.446Z,10.20
2023-03-25T11:00:22.418Z,10.12
2023-03-25T11:01:22.379Z,10.09
2023-03-25T11:02:22.449Z,10.02
2023-03-25T11:03:22.487Z,10.02
2023-03-25T11:04:22.366Z,10.01
2023-03-25T11:05:22.356Z,10.02
2023-03-25T11:06:22.370Z,10.07
2023-03-25T11:07:22.287Z,10.09
2023-03-25T11:08:25.061Z,10.05
2023-03-25T11:09:22.329Z,10.05
2023-03-25T11:10:22.292Z,10.09
2023-03-25T11:11:22.220Z,10.09
2023-03-25T11:12:33.277Z,10.15
2023-03-25T11:13:23.219Z,10.29
2023-03-25T11:14:22.315Z,10.66
2023-03-25T11:15:22.220Z,10.85
2023-03-25T11:16:22.181Z,11.11
2023-03-25T11:17:22.228Z,11.22
2023-03-25T11:18:22.179Z,11.37
2023-03-25T11:19:22.190Z,11.52
2023-03-25T11:20:22.216Z,11.55
2023-03-25T11:21:22.157Z,11.82
2023-03-25T11:22:22.095Z,11.98
2023-03-25T11:23:22.075Z,12.24
2023-03-25T11:24:22.094Z,12.46
2023-03-25T11:25:22.144Z,12.39
2023-03-25T11:26:22.146Z,12.47
2023-03-25T11:27:22.044Z,12.62
2023-03-25T11:28:21.996Z,12.67
2023-03-25T11:29:22.265Z,12.77
2023-03-25T11:30:21.999Z,12.54
2023-03-25T11:31:22.018Z,12.47
2023-03-25T11:32:21.980Z,12.46
2023-03-25T11:33:22.242Z,12.67
2023-03-25T11:34:21.996Z,12.92
2023-03-25T11:35:22.046Z,12.97
2023-03-25T11:36:21.901Z,12.87
2023-03-25T11:37:21.921Z,12.74
2023-03-25T11:38:21.910Z,12.79
2023-03-25T11:39:21.877Z,12.85
2023-03-25T11:40:21.986Z,12.77
2023-03-25T11:41:21.822Z,12.97
2023-03-25T11:42:21.793Z,13.32
2023-03-25T11:43:21.806Z,13.67
2023-03-25T11:44:21.803Z,14.03
2023-03-25T11:45:21.882Z,14.21
2023-03-25T11:46:21.768Z,14.07
2023-03-25T11:47:21.929Z,13.89
2023-03-25T11:48:22.421Z,13.96
2023-03-25T11:49:21.898Z,13.59
2023-03-25T11:50:21.901Z,13.64
2023-03-25T11:51:21.791Z,13.89
2023-03-25T11:52:21.854Z,13.77
2023-03-25T11:53:21.689Z,13.52
2023-03-25T11:54:21.681Z,13.51
2023-03-25T11:55:21.799Z,13.66
2023-03-25T11:56:21.756Z,13.63
2023-03-25T11:57:21.624Z,13.28
2023-03-25T11:58:21.722Z,12.97
2023-03-25T11:59:21.575Z,12.87
2023-03-25T12:00:21.807Z,12.78
2023-03-25T12:01:21.662Z,12.75
2023-03-25T12:02:21.580Z,12.68
2023-03-25T12:03:21.687Z,12.67
2023-03-25T12:04:21.587Z,12.77
2023-03-25T12:05:21.509Z,13.01
2023-03-25T12:06:21.543Z,13.25
2023-03-25T12:07:21.526Z,13.55
2023-03-25T12:08:21.471Z,13.60
2023-03-25T12:09:21.773Z,13.62
2023-03-25T12:10:21.503Z,13.57
2023-03-25T12:11:21.480Z,13.73
2023-03-25T12:12:21.419Z,13.71
2023-03-25T12:13:21.457Z,13.54
2023-03-25T12:14:21.372Z,13.22
2023-03-25T12:15:21.358Z,12.93
2023-03-25T12:16:21.396Z,13.00
2023-03-25T12:17:21.387Z,12.97
2023-03-25T12:18:21.758Z,13.36
2023-03-25T12:19:21.395Z,13.66
2023-03-25T12:20:21.623Z,13.84
2023-03-25T12:21:21.348Z,13.96
2023-03-25T12:22:21.547Z,14.17
2023-03-25T12:23:21.267Z,14.33
2023-03-25T12:24:21.263Z,14.54
2023-03-25T12:25:21.257Z,14.45
2023-03-25T12:26:21.411Z,14.62
2023-03-25T12:27:21.309Z,14.75
2023-03-25T12:28:21.356Z,14.46
2023-03-25T12:29:21.230Z,14.51
2023-03-25T12:30:21.221Z,14.80
2023-03-25T12:31:21.173Z,14.73
2023-03-25T12:32:21.158Z,14.78
2023-03-25T12:33:21.129Z,15.02
2023-03-25T12:34:21.375Z,15.36
2023-03-25T12:35:21.250Z,15.13
2023-03-25T12:36:21.295Z,14.84
2023-03-25T12:37:21.127Z,15.11
2023-03-25T12:38:21.139Z,15.01
2023-03-25T12:39:29.326Z,14.72
2023-03-25T12:40:22.086Z,14.42
2023-03-25T12:41:21.101Z,14.27
2023-03-25T12:42:21.032Z,14.46
2023-03-25T12:43:21.086Z,15.25
2023-03-25T12:44:21.023Z,15.74
2023-03-25T12:45:22.633Z,15.97
2023-03-25T12:46:21.035Z,16.02
2023-03-25T12:47:21.015Z,15.89
2023-03-25T12:48:20.948Z,16.04
2023-03-25T12:49:20.951Z,15.44
2023-03-25T12:50:22.528Z,15.21
2023-03-25T12:51:20.948Z,15.34
2023-03-25T12:52:20.888Z,15.17
2023-03-25T12:53:20.924Z,14.78
2023-03-25T12:54:20.844Z,14.45
2023-03-25T12:55:20.857Z,14.17
2023-03-25T12:56:20.839Z,14.55
2023-03-25T12:57:20.825Z,14.50
2023-03-25T12:58:20.966Z,13.99
2023-03-25T12:59:20.801Z,13.60
2023-03-25T13:00:21.269Z,13.44
2023-03-25T13:01:20.926Z,13.48
2023-03-25T13:02:20.824Z,13.33
2023-03-25T13:03:20.835Z,13.22
2023-03-25T13:04:20.732Z,13.14
2023-03-25T13:05:20.717Z,13.07
2023-03-25T13:06:20.701Z,12.92